createdAt,value
2023-05-18T00:02:16.436Z,1.00
2023-05-18T00:04:44.383Z,0.00
2023-05-18T00:07:11.799Z,0.00
2023-05-18T00:09:39.125Z,0.00
2023-05-18T00:12:06.929Z,1.00
2023-05-18T00:14:34.402Z,0.50
2023-05-18T00:17:03.387Z,1.00
2023-05-18T00:19:31.621Z,1.00
2023-05-18T00:21:58.892Z,1.00
2023-05-18T00:24:26.961Z,0.75
2023-05-18T00:26:54.202Z,1.00
2023-05-18T00:29:21.412Z,0.00
2023-05-18T00:31:49.557Z,0.00
2023-05-18T00:34:17.041Z,0.00
2023-05-18T00:36:44.318Z,1.00
2023-05-18T00:39:11.569Z,0.00
2023-05-18T00:41:39.043Z,1.00
2023-05-18T00:44:07.144Z,1.00
2023-05-18T00:46:34.538Z,1.00
2023-05-18T00:49:02.604Z,0.50
2023-05-18T00:51:32.653Z,0.00
2023-05-18T00:54:02.626Z,0.00
2023-05-18T00:56:34.500Z,0.00
2023-05-18T00:59:03.628Z,0.00
2023-05-18T01:01:37.170Z,0.50
2023-05-18T01:04:05.234Z,0.50
2023-05-18T01:06:36.472Z,0.00
2023-05-18T01:09:07.186Z,0.00
2023-05-18T01:11:56.020Z,0.00
2023-05-18T01:14:45.939Z,0.00
2023-05-18T01:17:51.464Z,0.00
2023-05-18T01:20:42.641Z,0.00
2023-05-18T01:23:35.806Z,0.00
2023-05-18T01:26:29.990Z,0.00
2023-05-18T01:29:07.587Z,0.00
2023-05-18T01:31:36.089Z,0.00
2023-05-18T01:34:03.481Z,0.00
2023-05-18T01:36:31.797Z,0.00
2023-05-18T01:39:02.173Z,0.00
2023-05-18T01:41:36.711Z,0.00
2023-05-18T01:44:16.169Z,0.00
2023-05-18T01:46:55.969Z,0.00
2023-05-18T01:50:02.136Z,0.00
2023-05-18T01:52:37.826Z,0.00
2023-05-18T01:55:07.410Z,0.00
2023-05-18T01:57:37.234Z,0.00
2023-05-18T02:00:10.491Z,0.00
2023-05-18T02:02:37.749Z,0.00
2023-05-18T02:05:06.892Z,0.00
2023-05-18T02:07:34.930Z,0.00
2023-05-18T02:10:02.280Z,0.00
2023-05-18T02:12:30.729Z,0.00
2023-05-18T02:14:58.686Z,1.00
2023-05-18T02:17:26.789Z,0.00
2023-05-18T02:19:54.040Z,0.00
2023-05-18T02:22:22.108Z,0.00
2023-05-18T02:24:49.420Z,0.00
2023-05-18T02:27:16.726Z,1.00
2023-05-18T02:29:44.041Z,0.00
2023-05-18T02:32:12.102Z,0.00
2023-05-18T02:34:42.427Z,0.00
2023-05-18T02:37:10.825Z,0.00
2023-05-18T02:39:38.930Z,0.00
2023-05-18T02:42:06.756Z,0.00
2023-05-18T02:44:34.797Z,0.00
2023-05-18T02:47:02.062Z,0.00
2023-05-18T02:49:30.137Z,0.00
2023-05-18T02:51:57.344Z,0.00
2023-05-18T02:54:24.649Z,0.00
2023-05-18T02:56:51.854Z,0.00
2023-05-18T02:59:19.940Z,0.25
2023-05-18T03:01:47.216Z,0.00
2023-05-18T03:04:14.460Z,0.00
2023-05-18T03:06:42.610Z,0.00
2023-05-18T03:09:09.835Z,1.00
2023-05-18T03:11:37.859Z,0.00
2023-05-18T03:14:05.118Z,0.00
2023-05-18T03:16:32.388Z,0.00
2023-05-18T03:19:02.260Z,0.00
2023-05-18T03:21:34.060Z,0.00
2023-05-18T03:24:01.425Z,0.00
2023-05-18T03:26:31.231Z,0.00
2023-05-18T03:28:59.985Z,0.00
2023-05-18T03:31:27.279Z,0.00
2023-05-18T03:33:54.594Z,0.00
2023-05-18T03:36:22.781Z,0.00
2023-05-18T03:38:49.994Z,0.00
2023-05-18T03:41:18.030Z,0.00
2023-05-18T03:43:45.259Z,0.00
2023-05-18T03:46:12.589Z,0.00
2023-05-18T03:48:39.813Z,0.00
2023-05-18T03:51:07.870Z,0.00
2023-05-18T03:53:36.492Z,0.00
2023-05-18T03:56:03.926Z,0.00
2023-05-18T03:58:31.144Z,0.00
2023-05-18T04:01:00.741Z,0.00
2023-05-18T04:03:28.284Z,0.00
2023-05-18T04:05:56.072Z,0.00
2023-05-18T04:08:25.769Z,0.00
2023-05-18T04:10:53.292Z,0.00
2023-05-18T04:13:20.740Z,0.00
2023-05-18T04:15:49.019Z,0.00
2023-05-18T04:18:17.440Z,0.00
2023-05-18T04:20:46.329Z,0.00
2023-05-18T04:23:13.618Z,1.00
2023-05-18T04:25:41.887Z,0.00
2023-05-18T04:28:10.092Z,0.00
2023-05-18T04:30:40.377Z,0.00
2023-05-18T04:33:08.918Z,0.00
2023-05-18T04:35:37.182Z,0.00
2023-05-18T04:38:05.496Z,0.00
2023-05-18T04:40:34.373Z,0.00
2023-05-18T04:43:01.954Z,0.00
2023-05-18T04:45:30.390Z,0.75
2023-05-18T04:47:59.020Z,0.00
2023-05-18T04:50:26.334Z,0.00
2023-05-18T04:52:58.253Z,0.00
2023-05-18T04:55:28.256Z,0.00
2023-05-18T04:57:57.925Z,1.00
2023-05-18T05:00:29.287Z,1.00
2023-05-18T05:02:58.804Z,1.00
2023-05-18T05:05:27.444Z,1.00
2023-05-18T05:07:56.048Z,0.00
2023-05-18T05:10:23.631Z,0.00
2023-05-18T05:12:52.051Z,0.75
2023-05-18T05:15:20.629Z,1.00
2023-05-18T05:17:49.361Z,0.50
2023-05-18T05:20:17.498Z,0.00
2023-05-18T05:22:45.168Z,0.00
2023-05-18T05:25:12.503Z,1.00
2023-05-18T05:27:40.789Z,0.00
2023-05-18T05:30:08.847Z,0.00
2023-05-18T05:32:36.906Z,1.00
2023-05-18T05:35:05.627Z,1.00
2023-05-18T05:37:32.810Z,1.00
2023-05-18T05:40:00.018Z,1.00
2023-05-18T05:42:28.097Z,0.25
2023-05-18T05:44:56.331Z,1.00
2023-05-18T05:47:23.916Z,1.00
2023-05-18T05:49:51.173Z,1.00
2023-05-18T05:52:19.240Z,1.00
2023-05-18T05:54:46.681Z,1.00
2023-05-18T05:57:13.984Z,1.00
2023-05-18T05:59:42.039Z,1.00
2023-05-18T06:02:09.313Z,1.00
2023-05-18T06:04:37.409Z,1.00
2023-05-18T06:07:04.942Z,1.00
2023-05-18T06:09:33.023Z,1.00
2023-05-18T06:12:00.387Z,1.00
2023-05-18T06:14:28.459Z,0.50
2023-05-18T06:16:56.561Z,0.00
2023-05-18T06:19:23.986Z,1.00
2023-05-18T06:21:51.316Z,1.00
2023-05-18T06:24:18.497Z,1.00
2023-05-18T06:26:46.535Z,1.00
2023-05-18T06:29:14.576Z,1.00
2023-05-18T06:31:41.819Z,1.00
2023-05-18T06:34:09.056Z,0.00
2023-05-18T06:36:38.317Z,0.50
2023-05-18T06:39:05.989Z,1.00
2023-05-18T06:41:34.334Z,1.00
2023-05-18T06:44:02.377Z,0.00
2023-05-18T06:46:30.470Z,1.00
2023-05-18T06:48:57.892Z,1.00
2023-05-18T06:51:26.068Z,0.25
2023-05-18T06:53:53.303Z,1.00
2023-05-18T06:56:22.592Z,1.00
2023-05-18T06:58:50.028Z,1.00
2023-05-18T07:01:18.232Z,0.00
2023-05-18T07:03:45.706Z,0.50
2023-05-18T07:06:12.981Z,1.00
2023-05-18T07:08:41.099Z,0.00
2023-05-18T07:11:09.679Z,0.00
2023-05-18T07:13:37.759Z,0.00
2023-05-18T07:16:05.236Z,0.00
2023-05-18T07:18:34.205Z,0.00
2023-05-18T07:21:02.255Z,0.00
2023-05-18T07:23:29.534Z,0.00
2023-05-18T07:25:57.994Z,0.00
2023-05-18T07:28:25.456Z,1.00
2023-05-18T07:30:52.723Z,0.00
2023-05-18T07:33:19.977Z,1.00
2023-05-18T07:35:47.335Z,0.50
2023-05-18T07:38:16.790Z,1.00
2023-05-18T07:40:44.007Z,0.50
2023-05-18T07:43:11.985Z,0.00
2023-05-18T07:45:40.048Z,1.00
2023-05-18T07:48:08.204Z,0.50
2023-05-18T07:50:36.380Z,0.00
2023-05-18T07:53:03.625Z,1.50
2023-05-18T07:55:32.222Z,1.00
2023-05-18T07:58:01.319Z,1.00
2023-05-18T08:00:28.930Z,1.00
2023-05-18T08:02:56.459Z,1.00
2023-05-18T08:05:24.812Z,26.00
2023-05-18T08:07:52.196Z,1.00
2023-05-18T08:10:19.425Z,1.00
2023-05-18T08:12:47.510Z,0.00
2023-05-18T08:15:14.804Z,0.00
2023-05-18T08:17:42.171Z,1.00
2023-05-18T08:20:11.263Z,1.00
2023-05-18T08:22:38.589Z,1.00
2023-05-18T08:25:10.502Z,1.00
2023-05-18T08:27:37.776Z,0.00
2023-05-18T08:30:05.413Z,0.00
2023-05-18T08:32:32.701Z,0.00
2023-05-18T08:35:00.652Z,1.00
2023-05-18T08:37:29.686Z,0.00
2023-05-18T08:39:57.217Z,0.00
2023-05-18T08:42:46.066Z,0.00
2023-05-18T08:45:49.350Z,0.00
2023-05-18T08:48:17.455Z,0.00
2023-05-18T08:50:47.596Z,0.00
2023-05-18T08:53:15.576Z,1.00
2023-05-18T08:55:44.493Z,1.00
2023-05-18T08:58:18.108Z,1.00
2023-05-18T09:00:45.575Z,1.50
2023-05-18T09:03:14.498Z,1.00
2023-05-18T09:05:42.360Z,1.00
2023-05-18T09:08:10.477Z,1.00
2023-05-18T09:10:39.540Z,1.00
2023-05-18T09:13:07.687Z,1.00
2023-05-18T09:15:37.992Z,2.00
2023-05-18T09:18:05.312Z,1.00
2023-05-18T09:20:32.875Z,1.00
2023-05-18T09:23:00.441Z,1.00
2023-05-18T09:25:29.188Z,1.00
2023-05-18T09:27:57.358Z,1.00
2023-05-18T09:30:25.891Z,1.00
2023-05-18T09:32:53.815Z,2.00
2023-05-18T09:35:22.116Z,1.00
2023-05-18T09:37:50.533Z,1.00
2023-05-18T09:40:19.700Z,1.50
2023-05-18T09:42:47.840Z,1.00
2023-05-18T09:45:29.541Z,1.00
2023-05-18T09:47:57.450Z,1.00
2023-05-18T09:50:25.742Z,1.00
2023-05-18T09:52:52.974Z,1.00
2023-05-18T09:55:21.352Z,1.00
2023-05-18T09:57:50.742Z,1.00
2023-05-18T10:00:22.206Z,2.00
2023-05-18T10:02:53.060Z,2.00
2023-05-18T10:05:29.930Z,1.00
2023-05-18T10:07:58.741Z,2.00
2023-05-18T10:10:29.999Z,1.50
2023-05-18T10:13:00.666Z,2.00
2023-05-18T10:15:28.037Z,1.50
2023-05-18T10:17:59.129Z,0.00
2023-05-18T10:20:27.710Z,1.00
2023-05-18T10:23:01.519Z,2.00
2023-05-18T10:25:30.329Z,2.00
2023-05-18T10:28:07.759Z,1.00
2023-05-18T10:30:35.672Z,2.00
2023-05-18T10:33:06.942Z,2.00
2023-05-18T10:35:39.801Z,9.00
2023-05-18T10:38:08.817Z,8.00
2023-05-18T10:40:40.991Z,3.40
2023-05-18T10:43:08.569Z,3.00
2023-05-18T10:45:37.756Z,2.00
2023-05-18T10:48:07.107Z,3.00
2023-05-18T10:50:37.890Z,3.00
2023-05-18T10:53:07.153Z,3.00
2023-05-18T10:55:34.514Z,2.00
2023-05-18T10:58:16.449Z,2.50
2023-05-18T11:00:55.470Z,3.00
2023-05-18T11:03:25.650Z,4.00
2023-05-18T11:06:13.293Z,5.00
2023-05-18T11:11:55.209Z,4.00
2023-05-18T11:14:28.569Z,3.00
2023-05-18T11:17:22.630Z,3.00
2023-05-18T11:20:10.136Z,4.00
2023-05-18T11:23:02.820Z,5.00
2023-05-18T11:25:34.010Z,6.00
2023-05-18T11:28:21.088Z,5.00
2023-05-18T11:30:56.482Z,4.50
2023-05-18T11:33:32.502Z,3.20
2023-05-18T11:36:13.882Z,5.00
2023-05-18T11:39:11.474Z,4.00
2023-05-18T11:41:42.850Z,3.50
2023-05-18T11:44:14.301Z,5.00
2023-05-18T11:46:54.183Z,4.00
2023-05-18T11:49:27.176Z,4.00
2023-05-18T11:52:06.887Z,0.00
2023-05-18T11:54:56.868Z,4.00
2023-05-18T11:57:40.779Z,3.00
2023-05-18T12:00:12.369Z,5.00
2023-05-18T12:02:47.928Z,3.50
2023-05-18T12:05:16.293Z,4.00
2023-05-18T12:07:45.151Z,3.00
2023-05-18T12:10:28.670Z,3.00
2023-05-18T12:12:58.195Z,4.00
2023-05-18T12:15:28.999Z,4.00
2023-05-18T12:17:59.330Z,3.00
2023-05-18T12:20:27.536Z,4.00
2023-05-18T12:22:56.536Z,4.00
2023-05-18T12:25:27.183Z,4.00
2023-05-18T12:27:55.603Z,4.00
2023-05-18T12:30:36.078Z,3.00
2023-05-18T12:33:04.693Z,2.00
2023-05-18T12:35:33.216Z,2.00
2023-05-18T12:38:01.936Z,3.00
2023-05-18T12:40:46.705Z,1.00
2023-05-18T12:43:14.116Z,3.50
2023-05-18T12:45:45.223Z,1.75
2023-05-18T12:48:15.267Z,7.67
2023-05-18T12:50:51.062Z,4.00
2023-05-18T12:53:19.340Z,7.33
2023-05-18T12:55:55.873Z,7.00
2023-05-18T12:58:23.098Z,6.00
2023-05-18T13:00:50.350Z,4.00
2023-05-18T13:03:23.146Z,7.00
2023-05-18T13:06:08.758Z,9.00
2023-05-18T13:08:38.047Z,15.33
2023-05-18T13:11:14.438Z,5.00
2023-05-18T13:14:04.825Z,8.00
2023-05-18T13:16:35.463Z,2.00
2023-05-18T13:19:08.911Z,26.67
2023-05-18T13:21:37.684Z,7.00
2023-05-18T13:24:06.309Z,10.33
2023-05-18T13:26:37.301Z,69.25
2023-05-18T13:29:08.805Z,117.25
2023-05-18T13:31:37.065Z,20.33
2023-05-18T13:34:06.275Z,57.00
2023-05-18T13:36:36.746Z,36.33
2023-05-18T13:39:07.520Z,5.20
2023-05-18T13:41:36.828Z,3.80
2023-05-18T13:44:04.268Z,2.00
2023-05-18T13:46:32.384Z,6.33
2023-05-18T13:48:59.684Z,3.00
2023-05-18T13:51:27.093Z,9.00
2023-05-18T13:53:54.376Z,9.00
2023-05-18T13:56:22.668Z,8.00
2023-05-18T13:58:50.407Z,7.00
2023-05-18T14:01:18.465Z,8.33
2023-05-18T14:03:45.967Z,9.00
2023-05-18T14:06:14.999Z,19.67
2023-05-18T14:08:42.240Z,3.50
2023-05-18T14:11:09.480Z,3.00
2023-05-18T14:13:36.721Z,5.00
2023-05-18T14:16:04.066Z,5.00
2023-05-18T14:18:31.374Z,4.00
2023-05-18T14:21:02.423Z,3.00
2023-05-18T14:23:30.172Z,7.00
2023-05-18T14:25:59.207Z,6.00
2023-05-18T14:28:27.324Z,13.67
2023-05-18T14:30:59.657Z,13.33
2023-05-18T14:33:26.983Z,7.00
2023-05-18T14:35:56.081Z,12.00
2023-05-18T14:38:27.060Z,8.00
2023-05-18T14:40:55.303Z,10.00
2023-05-18T14:43:23.501Z,15.00
2023-05-18T14:46:04.350Z,7.00
2023-05-18T14:48:35.225Z,5.00
2023-05-18T14:51:04.492Z,4.00
2023-05-18T14:53:31.763Z,3.50
2023-05-18T14:55:59.716Z,4.00
2023-05-18T14:58:27.003Z,4.50
2023-05-18T15:00:54.188Z,6.00
2023-05-18T15:03:25.049Z,9.00
2023-05-18T15:05:54.574Z,3.00
2023-05-18T15:08:21.891Z,4.50
2023-05-18T15:10:50.308Z,7.00
2023-05-18T15:13:18.490Z,9.33
2023-05-18T15:15:46.672Z,8.00
2023-05-18T15:18:13.992Z,6.00
2023-05-18T15:20:44.252Z,5.00
2023-05-18T15:23:11.729Z,4.00
2023-05-18T15:25:41.042Z,48.00
2023-05-18T15:28:09.393Z,3.00
2023-05-18T15:30:36.676Z,6.00
2023-05-18T15:33:06.514Z,5.60
2023-05-18T15:35:35.099Z,6.00
2023-05-18T15:38:04.122Z,4.60
2023-05-18T15:40:31.633Z,6.00
2023-05-18T15:42:59.451Z,5.00
2023-05-18T15:45:30.237Z,4.57
2023-05-18T15:47:59.452Z,3.00
2023-05-18T15:50:26.996Z,5.00
2023-05-18T15:52:54.291Z,2.50
2023-05-18T15:55:21.631Z,5.00
2023-05-18T15:57:48.873Z,4.00
2023-05-18T16:00:16.613Z,4.00
2023-05-18T16:02:44.187Z,3.00
2023-05-18T16:05:11.890Z,6.00
2023-05-18T16:07:41.387Z,5.00
2023-05-18T16:10:30.247Z,12.33
2023-05-18T16:16:19.761Z,5.57
2023-05-18T16:22:21.344Z,8.00
2023-05-18T16:25:15.688Z,4.00
2023-05-18T16:27:42.993Z,3.00
2023-05-18T16:30:10.811Z,4.00
2023-05-18T16:32:38.055Z,4.00
2023-05-18T16:35:05.997Z,5.00
2023-05-18T16:37:37.337Z,5.14
2023-05-18T16:40:08.296Z,8.60
2023-05-18T16:42:37.655Z,47.00
2023-05-18T16:45:07.149Z,5.00
2023-05-18T16:47:34.441Z,6.50
2023-05-18T16:50:01.822Z,5.00
2023-05-18T16:52:29.208Z,4.00
2023-05-18T16:54:56.419Z,5.00
2023-05-18T16:57:27.720Z,5.20
2023-05-18T16:59:55.083Z,5.00
2023-05-18T17:02:24.509Z,6.00
2023-05-18T17:04:52.507Z,9.00
2023-05-18T17:07:21.882Z,20.00
2023-05-18T17:09:49.366Z,9.00
2023-05-18T17:12:17.444Z,9.00
2023-05-18T17:14:44.763Z,8.00
2023-05-18T17:17:12.816Z,8.00
2023-05-18T17:19:41.779Z,11.00
2023-05-18T17:22:09.938Z,12.00
2023-05-18T17:24:38.371Z,13.67
2023-05-18T17:27:06.777Z,12.00
2023-05-18T17:29:36.901Z,11.00
2023-05-18T17:32:05.770Z,8.33
2023-05-18T17:34:33.078Z,9.50
2023-05-18T17:37:00.373Z,11.50
2023-05-18T17:39:28.597Z,11.00
2023-05-18T17:41:57.829Z,10.67
2023-05-18T17:44:26.405Z,11.33
2023-05-18T17:46:54.487Z,8.33
2023-05-18T17:49:21.749Z,10.50
2023-05-18T17:51:49.118Z,11.00
2023-05-18T17:54:17.303Z,11.00
2023-05-18T17:56:45.425Z,9.00
2023-05-18T17:59:13.864Z,10.67
2023-05-18T18:01:43.287Z,10.00
2023-05-18T18:04:10.849Z,10.00
2023-05-18T18:06:38.173Z,9.50
2023-05-18T18:09:06.873Z,14.00
2023-05-18T18:11:34.202Z,13.00
2023-05-18T18:14:06.329Z,11.00
2023-05-18T18:16:34.789Z,12.00
2023-05-18T18:19:03.106Z,11.50
2023-05-18T18:21:31.371Z,13.00
2023-05-18T18:23:59.703Z,14.00
2023-05-18T18:26:27.807Z,15.33
2023-05-18T18:28:55.972Z,16.00
2023-05-18T18:31:23.388Z,14.00
2023-05-18T18:33:51.633Z,10.67
2023-05-18T18:36:19.833Z,11.67
2023-05-18T18:38:48.160Z,12.67
2023-05-18T18:41:17.574Z,11.00
2023-05-18T18:43:45.903Z,16.67
2023-05-18T18:46:13.287Z,11.00
2023-05-18T18:48:41.514Z,12.00
2023-05-18T18:51:09.717Z,14.50
2023-05-18T18:53:38.758Z,21.67
2023-05-18T18:56:06.950Z,17.67
2023-05-18T18:58:35.216Z,13.00
2023-05-18T19:01:03.421Z,12.00
2023-05-18T19:03:33.183Z,13.50
2023-05-18T19:06:01.997Z,14.00
2023-05-18T19:08:30.168Z,18.00
2023-05-18T19:10:58.426Z,15.00
2023-05-18T19:13:26.772Z,19.67
2023-05-18T19:15:54.987Z,17.00
2023-05-18T19:18:23.265Z,18.00
2023-05-18T19:20:50.645Z,13.00
2023-05-18T19:23:19.644Z,21.33
2023-05-18T19:25:47.843Z,12.50
2023-05-18T19:28:15.197Z,14.00
2023-05-18T19:30:43.617Z,21.00
2023-05-18T19:33:11.840Z,25.67
2023-05-18T19:35:41.008Z,31.00
2023-05-18T19:38:09.352Z,11.00
2023-05-18T19:40:36.696Z,9.00
2023-05-18T19:43:05.899Z,8.00
2023-05-18T19:45:34.541Z,8.00
2023-05-18T19:48:03.223Z,14.67
2023-05-18T19:50:31.530Z,13.00
2023-05-18T19:52:59.763Z,12.33
2023-05-18T19:55:27.977Z,12.33
2023-05-18T19:57:55.315Z,13.00
2023-05-18T20:00:24.090Z,11.67
2023-05-18T20:02:51.379Z,11.50
2023-05-18T20:05:19.078Z,11.00
2023-05-18T20:07:47.251Z,13.33
2023-05-18T20:10:15.936Z,9.33
2023-05-18T20:12:46.655Z,10.33
2023-05-18T20:15:14.733Z,10.00
2023-05-18T20:17:43.090Z,8.00
2023-05-18T20:20:10.464Z,8.00
2023-05-18T20:22:38.714Z,9.00
2023-05-18T20:25:07.101Z,8.00
2023-05-18T20:27:35.608Z,12.00
2023-05-18T20:30:04.485Z,10.00
2023-05-18T20:32:33.436Z,10.00
2023-05-18T20:35:01.706Z,10.00
2023-05-18T20:37:29.006Z,7.50
2023-05-18T20:39:57.618Z,10.00
2023-05-18T20:42:38.753Z,8.67
2023-05-18T20:45:09.120Z,8.00
2023-05-18T20:47:36.428Z,8.00
2023-05-18T20:50:04.311Z,7.00
2023-05-18T20:52:31.613Z,7.00
2023-05-18T20:55:00.956Z,7.60
2023-05-18T20:57:31.734Z,6.29
2023-05-18T20:59:59.005Z,7.00
2023-05-18T21:02:26.486Z,8.00
2023-05-18T21:04:58.037Z,8.00
2023-05-18T21:07:26.240Z,7.00
2023-05-18T21:09:53.540Z,6.00
2023-05-18T21:12:20.839Z,7.00
2023-05-18T21:14:48.262Z,7.00
2023-05-18T21:17:35.245Z,7.00
2023-05-18T21:20:02.773Z,7.00
2023-05-18T21:22:31.894Z,8.80
2023-05-18T21:24:59.318Z,6.50
2023-05-18T21:27:26.620Z,7.50
2023-05-18T21:29:55.736Z,6.60
2023-05-18T21:32:23.155Z,7.00
2023-05-18T21:34:51.335Z,8.67
2023-05-18T21:37:18.593Z,8.00
2023-05-18T21:39:46.984Z,6.00
2023-05-18T21:42:15.090Z,8.00
2023-05-18T21:44:43.160Z,8.33
2023-05-18T21:47:10.578Z,7.00
2023-05-18T21:49:37.937Z,8.00
2023-05-18T21:52:05.350Z,7.00
2023-05-18T21:54:35.668Z,9.20
2023-05-18T21:57:04.986Z,6.80
2023-05-18T21:59:32.373Z,8.00
2023-05-18T22:01:59.742Z,8.50
2023-05-18T22:04:27.040Z,8.50
2023-05-18T22:06:55.118Z,8.33
2023-05-18T22:09:23.221Z,8.33
2023-05-18T22:11:51.500Z,7.33
2023-05-18T22:14:19.656Z,8.33
2023-05-18T22:16:48.088Z,8.00
2023-05-18T22:19:16.336Z,8.00
2023-05-18T22:21:44.496Z,7.00
2023-05-18T22:24:13.584Z,9.00
2023-05-18T22:26:43.522Z,7.00
2023-05-18T22:29:10.977Z,7.50
2023-05-18T22:31:40.241Z,9.00
2023-05-18T22:34:08.343Z,9.00
2023-05-18T22:36:35.659Z,8.50
2023-05-18T22:39:04.645Z,9.00
2023-05-18T22:41:31.943Z,9.00
2023-05-18T22:43:59.240Z,8.00
2023-05-18T22:46:26.685Z,2.50
2023-05-18T22:48:54.038Z,8.00
2023-05-18T22:51:23.639Z,8.50
2023-05-18T22:53:50.943Z,8.00
2023-05-18T22:56:19.787Z,8.00
2023-05-18T22:58:47.129Z,9.00
2023-05-18T23:01:14.453Z,10.00
2023-05-18T23:03:41.794Z,9.00
2023-05-18T23:06:09.389Z,8.00
2023-05-18T23:08:37.322Z,8.50
2023-05-18T23:11:06.027Z,10.00
2023-05-18T23:13:33.299Z,9.00
2023-05-18T23:16:02.571Z,9.00
2023-05-18T23:18:30.645Z,8.00
2023-05-18T23:20:58.886Z,9.00
2023-05-18T23:23:26.392Z,9.00
2023-05-18T23:25:53.748Z,7.00
2023-05-18T23:28:21.858Z,8.67
2023-05-18T23:30:49.219Z,9.00
2023-05-18T23:33:17.862Z,8.00
2023-05-18T23:35:47.057Z,8.00
2023-05-18T23:38:18.883Z,9.00
2023-05-18T23:40:47.903Z,8.00
2023-05-18T23:43:15.453Z,8.00
2023-05-18T23:45:43.076Z,7.00
2023-05-18T23:48:11.979Z,8.00
2023-05-18T23:50:42.366Z,8.00
2023-05-18T23:53:15.134Z,9.33
2023-05-18T23:55:43.318Z,9.67
2023-05-18T23:58:12.175Z,8.67
